Flight Track Log - Related Links

Times and Time Zones

All times are in EDT time to prevent confusion due to time zone crossing. See the FLG4081 flight status page for this flight to view local times or setup timezone preferences in your user account.

Time Position Orientation Groundspeed Altitude Reporting Facility
EDT Latitude Longitude Course Direction KTS MPH feet Rate Location/Type
Mon 09:59:39 PM 42.2031 -83.3550 276° West 167 192 1,600  Level FAA TRACON
Mon 10:00:00 PM 42.1900 -83.3683 217° Southwest 187 215 2,600 2,927 Climbing FAA TRACON
Mon 10:00:20 PM 42.1744 -83.3864 221° Southwest 200 230 3,600 3,385 Climbing FAA TRACON
Mon 10:00:39 PM 42.1617 -83.3997 218° Southwest 192 221 4,800 2,485 Climbing FAA TRACON
Mon 10:01:59 PM 42.0919 -83.4653 215° Southwest 267 307 7,700 2,713 Climbing FAA TRACON
Mon 10:02:00 PM 42.2199 -83.6951 276° West  Level FlightAware
Mon 10:02:34 PM 42.0522 -83.5000 213° Southwest 275 316 10,000  Level Cleveland Center
Mon 10:03:00 PM 42.2282 -83.8107 276° West  Level FlightAware
Mon 10:03:01 PM 42.0308 -83.5186 213° Southwest 284 327 10,900  Level Cleveland Center
Mon 10:03:35 PM 42.0122 -83.5931 251° West 329 379 12,000 1,100 Climbing Cleveland Center
Mon 10:04:00 PM 42.2360 -83.9205 276° West  Level FlightAware
Mon 10:04:01 PM 42.0317 -83.6472 296° West 354 407 12,000  Level Cleveland Center
Mon 10:05:01 PM 42.0806 -83.7586 301° West 377 434 12,000  Level Cleveland Center
Mon 10:06:01 PM 42.1219 -83.8531 301° West 382 440 12,000 50 Level Cleveland Center
Mon 10:07:01 PM 42.1764 -83.9875 299° West 382 440 12,100 50 Climbing Cleveland Center
Mon 10:08:01 PM 42.2289 -84.1111 300° West 382 440 12,100 -550 Level Cleveland Center
Mon 10:09:01 PM 42.2644 -84.2394 291° West 382 440 11,000 -550 Descending Cleveland Center
Mon 10:10:01 PM 42.2600 -84.3739 267° West 360 414 11,000  Level Cleveland Center
Mon 10:11:01 PM 42.2558 -84.5025 268° West 360 414 11,000  Level Cleveland Center
Mon 10:12:59 PM 42.2542 -84.7633 270° West 337 388 11,000  Level Chicago Center
Mon 10:14:01 PM 42.2517 -84.8892 269° West 336 387 11,000 -194 Level Chicago Center
Mon 10:15:03 PM 42.2494 -85.0117 269° West 332 382 10,600 -878 Descending Chicago Center
Mon 10:16:04 PM 42.2472 -85.1056 268° West 286 329 9,200 -1,707 Descending Chicago Center
Mon 10:17:06 PM 42.2431 -85.2044 267° West 268 308 7,100 -2,049 Descending Chicago Center
Mon 10:18:07 PM 42.2108 -85.3097 248° West 261 300 5,000 -1,512 Descending Chicago Center
Mon 10:19:09 PM 42.1942 -85.3900 254° West 238 274 4,000 -927 Descending Chicago Center
Mon 10:20:10 PM 42.1597 -85.4383 226° Southwest 204 235 3,100 -683 Descending Chicago Center
Mon 10:21:12 PM 42.1403 -85.4889 243° Southwest 209 241 2,600 -484 Descending Chicago Center

Login

Don't have an account? Register now (free) for customized features, flight alerts, and more!